Time;durP1;ratioP1;P1;durP2;ratioP2;P2;SDS_P1;SDS_P2;PMS_P1;PMS_P2;Temp;Humidity;BMP_temperature;BMP_pressure;BME280_temperature;BME280_humidity;BME280_pressure;Samples;Min_cycle;Max_cycle;Signal;HPM_P1;HPM_P2
2023/04/23 00:03:48;;;;;;;8.17;4.90;;;9.90;78.60;;;8.40;67.55;99923.94;10400571;28;96530;-80
2023/04/23 00:08:58;;;;;;;6.67;4.43;;;9.80;78.80;;;8.34;67.93;99938.59;10403905;28;97197;-83
2023/04/23 00:14:01;;;;;;;6.80;4.70;;;9.70;79.20;;;8.24;68.44;99924.66;10381705;28;96649;-83
2023/04/23 00:19:04;;;;;;;6.27;4.50;;;9.60;79.80;;;8.09;69.66;99916.47;10381680;28;96800;-83
2023/04/23 00:24:07;;;;;;;7.87;5.67;;;9.50;80.30;;;8.03;69.76;99923.22;10397199;28;96768;-83
2023/04/23 00:29:10;;;;;;;7.20;4.83;;;9.40;80.80;;;8.02;69.56;99918.09;10396896;28;96904;-83
2023/04/23 00:34:14;;;;;;;7.30;4.40;;;9.40;81.00;;;7.95;69.71;99919.72;10379315;28;97970;-82
2023/04/23 00:39:17;;;;;;;9.37;5.27;;;9.30;81.50;;;7.88;70.06;99916.06;10380844;28;96687;-82
2023/04/23 00:44:21;;;;;;;8.80;4.53;;;9.20;82.00;;;7.83;70.49;99915.69;10381202;28;96499;-82
2023/04/23 00:49:24;;;;;;;7.37;5.40;;;9.20;82.70;;;7.78;70.72;99911.69;10396847;28;96498;-82
2023/04/23 00:54:28;;;;;;;7.97;5.13;;;9.20;82.70;;;7.71;70.63;99913.31;10399470;28;96580;-82
2023/04/23 00:59:31;;;;;;;9.17;5.83;;;9.10;84.00;;;7.64;71.44;99909.63;10400175;28;96604;-81
2023/04/23 01:04:36;;;;;;;11.10;6.07;;;9.00;84.30;;;7.65;71.35;99913.09;10401831;28;96732;-83
2023/04/23 01:09:40;;;;;;;11.30;6.90;;;9.00;84.50;;;7.59;71.68;99903.97;10422455;28;96649;-83
2023/04/23 01:14:44;;;;;;;9.27;5.97;;;9.00;85.60;;;7.55;71.66;99904.44;10370324;28;96471;-83
2023/04/23 01:19:48;;;;;;;11.40;6.13;;;8.90;85.70;;;7.54;71.61;99910.72;10402915;28;96935;-84
2023/04/23 01:24:52;;;;;;;12.50;6.67;;;8.90;86.00;;;7.57;71.53;99911.25;10385742;28;97727;-83
2023/04/23 01:29:57;;;;;;;9.80;6.30;;;9.00;86.30;;;7.51;71.85;99903.94;10406807;27;96865;-83
2023/04/23 01:35:03;;;;;;;8.43;6.50;;;8.90;87.00;;;7.51;71.94;99903.94;10416482;28;98524;-83
2023/04/23 01:40:07;;;;;;;9.57;6.07;;;8.90;87.30;;;7.47;71.47;99899.94;10403575;28;96592;-83
2023/04/23 01:45:25;;;;;;;8.13;5.27;;;8.90;87.30;;;7.43;71.83;99888.81;10383015;28;96549;-83
2023/04/23 01:50:45;;;;;;;7.73;5.13;;;8.80;87.60;;;7.44;71.19;99894.97;10386788;28;96625;-83
2023/04/23 01:55:51;;;;;;;7.17;5.17;;;8.80;87.60;;;7.41;71.45;99898.72;10420766;28;96697;-83
2023/04/23 02:00:54;;;;;;;8.30;4.90;;;8.80;87.70;;;7.38;71.81;99892.94;10415555;28;96720;-83
2023/04/23 02:05:59;;;;;;;12.07;6.93;;;8.80;88.30;;;7.36;72.75;99886.97;10399379;28;96480;-82
2023/04/23 02:11:02;;;;;;;9.27;6.27;;;8.80;88.90;;;7.33;72.92;99893.41;10385634;28;96550;-83
2023/04/23 02:16:05;;;;;;;12.30;7.20;;;8.80;89.60;;;7.24;72.69;99881.09;10397819;28;97216;-83
2023/04/23 02:21:08;;;;;;;10.57;6.77;;;8.70;89.70;;;7.20;73.43;99885.88;10383566;28;97384;-83
2023/04/23 02:26:12;;;;;;;10.27;6.63;;;8.70;90.00;;;7.17;74.17;99886.16;10402149;28;97269;-83
2023/04/23 02:31:16;;;;;;;11.27;6.13;;;8.60;90.40;;;7.16;73.81;99883.69;10382841;28;97241;-83
2023/04/23 02:36:20;;;;;;;10.23;7.40;;;8.60;90.40;;;7.08;73.86;99883.63;10384803;28;96598;-83
2023/04/23 02:41:23;;;;;;;8.57;6.00;;;8.50;90.60;;;7.05;74.14;99878.63;10401315;28;97298;-82
2023/04/23 02:46:26;;;;;;;9.10;6.20;;;8.50;90.80;;;6.96;74.12;99872.47;10417135;28;96437;-83
2023/04/23 02:51:30;;;;;;;10.03;6.90;;;8.40;90.90;;;6.83;74.46;99864.91;10400196;28;97249;-82
2023/04/23 02:56:33;;;;;;;8.20;5.33;;;8.40;91.30;;;6.81;74.66;99879.25;10368963;28;96351;-82
2023/04/23 03:01:36;;;;;;;11.27;7.43;;;8.30;91.50;;;6.69;74.35;99863.66;10391763;28;96513;-83
2023/04/23 03:06:39;;;;;;;7.90;4.70;;;8.20;91.60;;;6.64;74.68;99870.34;10396380;28;96393;-82
2023/04/23 03:11:42;;;;;;;10.90;6.10;;;8.20;92.10;;;6.64;75.03;99865.06;10400123;28;96780;-82
2023/04/23 03:16:45;;;;;;;12.73;5.93;;;8.10;92.30;;;6.59;75.34;99873.44;10399455;27;96877;-84
2023/04/23 03:21:48;;;;;;;9.37;6.50;;;8.00;92.50;;;6.53;76.18;99868.75;10382502;28;96522;-84
2023/04/23 03:26:51;;;;;;;10.10;5.93;;;8.00;92.90;;;6.48;76.31;99873.69;10384259;28;96606;-84
2023/04/23 03:31:55;;;;;;;16.57;11.43;;;7.90;93.10;;;6.45;76.94;99879.25;10385486;28;97286;-84
2023/04/23 03:36:59;;;;;;;14.23;10.57;;;7.90;93.80;;;6.32;77.05;99874.31;10398912;28;96982;-82
2023/04/23 03:42:04;;;;;;;9.27;6.77;;;7.80;93.80;;;6.30;76.83;99880.75;10398808;28;96574;-82
2023/04/23 03:47:07;;;;;;;11.30;7.93;;;7.70;93.90;;;6.26;77.37;99882.00;10379476;28;96670;-82
2023/04/23 03:52:17;;;;;;;11.03;8.20;;;7.70;94.30;;;6.22;77.36;99881.47;10396825;28;98362;-83
2023/04/23 03:57:27;;;;;;;15.23;10.37;;;7.70;94.30;;;6.20;77.26;99872.03;10373804;28;96569;-82
2023/04/23 04:02:38;;;;;;;10.00;6.80;;;7.60;94.50;;;6.19;77.31;99873.03;10395433;28;97783;-82
2023/04/23 04:07:41;;;;;;;12.00;8.57;;;7.60;95.00;;;6.23;77.71;99892.84;10394516;28;96531;-82
2023/04/23 04:12:46;;;;;;;12.53;7.97;;;7.60;95.20;;;6.28;78.22;99886.16;10378786;28;97262;-86
2023/04/23 04:17:49;;;;;;;14.10;8.27;;;7.70;95.50;;;6.38;78.26;99886.94;10394370;27;96779;-83
2023/04/23 04:22:52;;;;;;;8.57;5.90;;;7.70;95.50;;;6.51;78.56;99888.38;10397440;28;98240;-85
2023/04/23 04:27:56;;;;;;;10.27;7.60;;;7.90;95.80;;;6.66;78.74;99897.47;10383088;28;96879;-85
2023/04/23 04:33:00;;;;;;;12.13;6.60;;;8.00;96.00;;;6.83;78.75;99896.59;10380334;28;97072;-85
2023/04/23 04:38:03;;;;;;;9.20;6.10;;;8.20;96.20;;;7.01;78.52;99904.53;10380803;28;97369;-84
2023/04/23 04:43:06;;;;;;;10.30;7.07;;;8.30;96.30;;;7.17;78.16;99902.03;10380987;27;96479;-85
2023/04/23 04:48:09;;;;;;;8.27;5.80;;;8.50;96.20;;;7.35;78.04;99917.84;10378912;28;96606;-86
2023/04/23 04:53:12;;;;;;;7.50;5.40;;;8.60;96.20;;;7.55;77.47;99926.41;10395038;28;96727;-86
2023/04/23 04:58:15;;;;;;;9.20;6.03;;;8.80;96.10;;;7.68;76.60;99918.94;10393910;28;96869;-85
2023/04/23 05:03:19;;;;;;;8.53;4.77;;;9.00;95.80;;;7.84;76.26;99922.63;10362545;28;96583;-85
2023/04/23 05:08:22;;;;;;;9.63;6.20;;;9.10;96.10;;;7.94;75.46;99915.41;10396441;28;96654;-86
2023/04/23 05:13:25;;;;;;;8.00;6.07;;;9.20;95.80;;;8.09;75.35;99935.00;10396253;28;96513;-86
2023/04/23 05:18:28;;;;;;;8.80;6.03;;;9.30;95.80;;;8.23;74.91;99926.47;10379113;28;96896;-86
2023/04/23 05:23:33;;;;;;;7.73;5.63;;;9.50;95.90;;;8.41;74.01;99926.41;10396711;28;96767;-86
2023/04/23 05:28:36;;;;;;;9.40;5.60;;;9.60;95.60;;;8.58;73.22;99919.34;10380187;28;96783;-86
2023/04/23 05:33:39;;;;;;;6.60;4.27;;;9.70;95.30;;;8.75;71.91;99918.38;10362147;28;96739;-86
2023/04/23 05:38:52;;;;;;;8.47;4.97;;;9.90;95.00;;;8.94;71.21;99921.72;10399155;27;97346;-86
2023/04/23 05:43:55;;;;;;;8.70;4.37;;;10.10;94.60;;;9.17;71.26;99917.41;10421297;28;96432;-85
2023/04/23 05:48:58;;;;;;;6.17;4.50;;;10.30;94.50;;;9.49;70.83;99924.53;10390933;28;96523;-85
2023/04/23 05:54:01;;;;;;;7.73;5.67;;;10.70;94.20;;;9.80;68.95;99916.69;10403587;28;97385;-85
2023/04/23 05:59:05;;;;;;;11.13;5.93;;;11.00;93.60;;;10.11;67.20;99910.63;10386576;28;96640;-86
2023/04/23 06:04:07;;;;;;;7.23;4.70;;;11.30;92.90;;;10.40;66.48;99921.47;10401730;28;98164;-86
2023/04/23 06:09:11;;;;;;;8.93;5.70;;;11.60;92.50;;;10.80;64.35;99921.44;10400878;28;96749;-85
2023/04/23 06:14:14;;;;;;;8.87;6.37;;;11.90;91.80;;;11.13;61.72;99917.53;10403591;28;97000;-86
2023/04/23 06:19:17;;;;;;;8.77;5.77;;;12.30;90.30;;;11.45;61.42;99919.09;10387891;28;96622;-86
2023/04/23 06:24:20;;;;;;;10.00;7.00;;;12.60;90.00;;;11.82;60.57;99917.44;10406953;28;96528;-86
2023/04/23 06:29:23;;;;;;;10.40;6.53;;;12.90;89.00;;;12.14;58.99;99923.41;10389463;28;96733;-85
2023/04/23 06:34:26;;;;;;;13.03;7.23;;;13.30;87.60;;;12.39;57.69;99922.09;10383124;28;96890;-86
2023/04/23 06:39:29;;;;;;;9.20;6.90;;;13.50;85.50;;;12.60;55.87;99926.66;10385513;28;96657;-86
2023/04/23 06:44:33;;;;;;;10.13;6.00;;;13.80;83.10;;;12.85;55.75;99919.97;10401283;28;96775;-85
2023/04/23 06:49:36;;;;;;;12.03;6.30;;;14.00;82.40;;;13.08;54.70;99922.47;10382592;28;96634;-86
2023/04/23 06:54:39;;;;;;;7.43;5.13;;;14.30;80.90;;;13.22;54.45;99919.94;10385123;28;97371;-85
2023/04/23 06:59:43;;;;;;;7.13;4.70;;;14.40;79.60;;;13.47;54.45;99923.84;10386599;28;96575;-86
2023/04/23 07:04:46;;;;;;;8.07;5.05;;;14.60;79.50;;;13.75;53.20;99926.53;10369006;28;96962;-85
2023/04/23 07:09:49;;;;;;;7.57;5.60;;;14.90;78.80;;;14.02;52.14;99921.34;10381182;28;97808;-86
2023/04/23 07:14:53;;;;;;;6.43;4.88;;;15.20;77.80;;;14.32;52.71;99916.56;10386298;28;96578;-86
2023/04/23 07:19:56;;;;;;;7.22;5.18;;;15.50;77.50;;;15.22;50.81;99913.53;10393935;27;96930;-83
2023/04/23 07:25:00;;;;;;;9.98;5.95;;;15.80;76.40;;;15.49;48.16;99902.84;10400260;28;96784;-84
2023/04/23 07:30:04;;;;;;;6.03;4.43;;;16.20;74.60;;;15.89;49.97;99895.56;10390994;28;97428;-85
2023/04/23 07:35:09;;;;;;;9.35;5.60;;;16.50;75.10;;;16.55;47.04;99897.19;10382916;28;96648;-85
2023/04/23 07:40:12;;;;;;;9.93;5.30;;;16.90;72.80;;;16.90;45.93;99889.59;10407833;27;96537;-85
2023/04/23 07:45:16;;;;;;;7.72;5.10;;;17.30;72.00;;;17.42;44.21;99892.09;10378507;27;98149;-85
2023/04/23 07:50:19;;;;;;;7.72;5.47;;;17.60;70.20;;;17.72;42.53;99890.41;10374121;28;98729;-86
2023/04/23 07:55:22;;;;;;;8.10;5.40;;;17.90;68.00;;;17.85;43.04;99884.06;10396924;28;97168;-86
2023/04/23 08:00:25;;;;;;;8.32;5.43;;;18.30;67.20;;;17.78;42.22;99889.53;10416110;27;97004;-85
2023/04/23 08:05:28;;;;;;;10.05;6.65;;;18.50;65.90;;;17.68;41.83;99886.47;10398793;28;96893;-85
2023/04/23 08:10:32;;;;;;;10.23;6.32;;;18.60;64.70;;;17.74;43.22;99882.94;10383787;27;96636;-87
2023/04/23 08:15:35;;;;;;;11.23;6.30;;;18.80;64.50;;;17.83;41.98;99878.94;10407977;28;97560;-87
2023/04/23 08:20:38;;;;;;;9.70;5.57;;;19.00;63.30;;;18.00;42.66;99879.16;10434341;27;97226;-87
2023/04/23 08:25:41;;;;;;;11.25;7.13;;;19.10;63.30;;;18.21;41.66;99869.81;10401553;27;96528;-86
2023/04/23 08:30:45;;;;;;;12.82;7.55;;;19.40;62.40;;;18.37;42.20;99868.38;10425512;27;96551;-87
2023/04/23 08:35:48;;;;;;;8.45;5.63;;;19.60;62.20;;;18.76;40.75;99855.44;10380442;28;97738;-87
2023/04/23 08:40:57;;;;;;;7.63;4.88;;;19.90;61.10;;;19.15;37.92;99851.31;10397203;28;98548;-86
2023/04/23 08:46:03;;;;;;;6.45;4.70;;;20.20;58.50;;;19.56;36.70;99841.50;10404896;28;97671;-87
2023/04/23 08:51:10;;;;;;;7.10;4.93;;;20.60;56.80;;;19.82;35.90;99843.72;10374561;28;96603;-87
2023/04/23 08:56:14;;;;;;;8.85;4.25;;;21.00;54.90;;;20.05;33.70;99832.91;10380995;28;98419;-87
2023/04/23 09:01:18;;;;;;;4.45;3.20;;;21.30;53.20;;;21.26;34.26;99831.84;10360411;28;96577;-87
2023/04/23 09:06:21;;;;;;;3.50;2.88;;;22.00;53.90;;;22.70;31.19;99826.13;10393573;28;96702;-88
2023/04/23 09:11:27;;;;;;;6.50;3.50;;;22.80;52.10;;;23.76;29.74;99814.47;10377497;28;96567;-87
2023/04/23 09:16:30;;;;;;;5.50;2.90;;;23.40;50.90;;;24.34;27.00;99811.72;10381782;28;96798;-84
2023/04/23 09:21:35;;;;;;;4.22;2.90;;;23.80;48.90;;;24.05;26.97;99814.06;10398277;28;97898;-84
2023/04/23 09:26:45;;;;;;;4.93;3.13;;;23.80;47.50;;;23.65;26.64;99810.09;10381325;28;96571;-84
2023/04/23 09:31:53;;;;;;;4.38;2.83;;;23.80;46.40;;;23.40;27.38;99801.78;10385615;28;98015;-82
2023/04/23 09:36:56;;;;;;;5.35;3.28;;;23.90;45.70;;;23.51;27.05;99803.47;10382059;28;96587;-83
2023/04/23 09:42:04;;;;;;;8.07;2.92;;;24.00;44.80;;;23.47;27.01;99802.34;10415837;28;97176;-83
2023/04/23 09:47:13;;;;;;;5.18;3.10;;;24.10;44.80;;;23.28;27.34;99798.44;10386195;28;98194;-83
2023/04/23 09:52:17;;;;;;;4.73;2.40;;;24.30;44.50;;;23.65;27.32;99801.13;10400544;28;98410;-82
2023/04/23 09:57:24;;;;;;;4.43;3.15;;;24.60;44.40;;;24.43;25.56;99787.59;10399072;28;96673;-82
2023/04/23 10:02:28;;;;;;;4.15;3.10;;;24.90;43.90;;;24.85;25.30;99778.38;10385073;28;96746;-84
2023/04/23 10:07:32;;;;;;;4.25;3.00;;;25.10;43.60;;;24.50;24.02;99778.09;10408862;28;96951;-83
2023/04/23 10:12:35;;;;;;;4.68;3.05;;;25.00;42.30;;;24.00;24.92;99773.34;10388671;28;96526;-83
2023/04/23 10:17:58;;;;;;;5.13;3.15;;;24.80;42.10;;;23.64;25.90;99762.34;10400466;28;97766;-83
2023/04/23 10:23:01;;;;;;;3.88;3.17;;;24.60;42.50;;;23.31;26.58;99759.94;10369917;28;96640;-82
2023/04/23 10:28:06;;;;;;;6.22;3.20;;;24.40;42.50;;;23.25;25.59;99761.81;10393987;28;96806;-83
2023/04/23 10:33:12;;;;;;;8.05;3.17;;;24.30;41.80;;;23.15;26.23;99754.47;10399245;28;96785;-82
2023/04/23 10:38:31;;;;;;;8.00;3.00;;;24.30;42.00;;;23.08;25.83;99748.41;10377606;28;96781;-83
2023/04/23 10:43:35;;;;;;;6.78;2.90;;;24.20;41.90;;;23.37;26.12;99745.34;10387333;28;96594;-83
2023/04/23 10:49:15;;;;;;;5.28;2.80;;;24.40;42.00;;;23.69;26.26;99735.25;10396090;27;96605;-85
2023/04/23 10:54:18;;;;;;;;;;;24.80;41.90;;;23.95;24.93;99736.13;10385215;28;97332;-85
2023/04/23 10:59:21;;;;;;;4.50;2.78;;;25.00;40.60;;;23.58;24.39;99730.81;10395502;28;97026;-84
2023/04/23 11:04:27;;;;;;;5.22;2.78;;;24.90;39.70;;;23.53;23.36;99728.09;10396063;28;96656;-84
2023/04/23 11:09:46;;;;;;;3.25;2.28;;;24.80;39.30;;;23.71;23.12;99729.53;10368770;28;96533;-83
2023/04/23 11:14:53;;;;;;;4.07;2.20;;;24.80;38.70;;;23.66;23.73;99730.34;10399187;28;96520;-83
2023/04/23 11:20:12;;;;;;;3.22;2.35;;;24.80;39.00;;;23.97;23.39;99725.00;10378728;28;96711;-84
2023/04/23 11:25:25;;;;;;;3.53;2.30;;;25.10;39.20;;;24.33;22.60;99722.38;10396655;28;97064;-84
2023/04/23 11:30:29;;;;;;;3.97;2.20;;;25.40;38.50;;;24.18;22.47;99715.03;10384600;28;97870;-85
2023/04/23 11:35:39;;;;;;;5.95;2.65;;;25.40;38.20;;;24.14;23.40;99716.63;10366226;27;98887;-84
2023/04/23 11:40:47;;;;;;;4.35;2.13;;;25.40;38.40;;;24.33;23.04;99716.94;10372153;27;97347;-84
2023/04/23 11:45:50;;;;;;;5.20;2.67;;;25.60;38.20;;;24.66;23.11;99711.00;10407797;27;96765;-85
2023/04/23 11:50:54;;;;;;;3.10;2.30;;;26.10;38.50;;;25.12;22.42;99705.53;10380683;27;96628;-86
2023/04/23 11:55:57;;;;;;;3.88;2.03;;;26.60;37.90;;;25.66;21.09;99691.19;10395254;27;96819;-90
2023/04/23 12:01:01;;;;;;;4.18;2.45;;;27.30;37.20;;;26.00;21.13;99691.31;10395107;28;96654;-91
2023/04/23 12:06:04;;;;;;;3.42;2.53;;;27.80;37.00;;;26.34;20.12;99685.09;10397643;27;97302;-92
2023/04/23 12:11:07;;;;;;;2.72;2.08;;;28.20;35.90;;;26.73;21.00;99670.59;10399061;28;96553;-90
2023/04/23 12:16:11;;;;;;;2.67;2.20;;;28.70;36.60;;;27.38;20.52;99673.75;10402358;27;96604;-90
2023/04/23 12:21:16;;;;;;;3.50;2.15;;;29.40;36.20;;;27.38;19.03;99660.91;10383400;28;96540;-89
2023/04/23 12:26:20;;;;;;;3.45;2.10;;;29.80;34.80;;;27.41;19.10;99659.53;10378226;27;96765;-90
2023/04/23 12:31:29;;;;;;;3.20;2.30;;;29.80;34.90;;;27.22;20.03;99664.91;10377411;28;96740;-89
2023/04/23 12:36:35;;;;;;;2.80;2.28;;;29.80;34.70;;;27.67;19.73;99649.06;10398963;28;96498;-89
2023/04/23 12:41:38;;;;;;;2.80;2.20;;;30.00;34.80;;;27.68;19.58;99631.59;10361706;28;97399;-91
2023/04/23 12:46:41;;;;;;;3.63;2.50;;;30.10;34.20;;;27.77;18.91;99640.78;10380205;28;96739;-90
2023/04/23 12:51:44;;;;;;;4.20;2.20;;;30.30;34.30;;;27.68;19.26;99639.78;10394881;28;96619;-89
2023/04/23 12:56:48;;;;;;;4.90;2.50;;;30.20;34.30;;;27.59;19.50;99627.88;10380146;28;97093;-90
2023/04/23 13:01:51;;;;;;;3.20;2.40;;;30.10;34.40;;;27.70;20.38;99634.84;10380146;27;96654;-89
2023/04/23 13:06:54;;;;;;;3.00;2.35;;;30.00;34.70;;;27.81;19.31;99619.97;10398739;27;98491;-89
2023/04/23 13:11:58;;;;;;;5.05;2.33;;;30.20;33.90;;;27.61;18.57;99615.59;10395303;27;96560;-89
2023/04/23 13:17:02;;;;;;;3.55;2.10;;;30.30;33.70;;;27.80;19.58;99612.88;10400864;28;97003;-89
2023/04/23 13:22:06;;;;;;;3.95;2.60;;;30.60;34.00;;;27.83;19.27;99604.13;10401768;28;96528;-90
2023/04/23 13:27:09;;;;;;;3.42;2.45;;;30.60;33.50;;;28.19;19.46;99604.34;10392928;28;96595;-91
2023/04/23 13:32:13;;;;;;;3.40;2.28;;;30.90;33.90;;;28.14;19.55;99584.50;10395504;28;98346;-88
2023/04/23 13:37:16;;;;;;;4.30;2.50;;;30.90;33.60;;;28.15;18.38;99583.38;10389142;28;96684;-84
2023/04/23 13:42:19;;;;;;;3.80;2.30;;;31.00;33.20;;;28.20;18.69;99577.84;10379872;28;96862;-86
2023/04/23 13:47:23;;;;;;;2.90;2.22;;;30.90;33.00;;;28.59;18.45;99571.16;10411747;28;96649;-86
2023/04/23 13:52:26;;;;;;;4.68;2.20;;;31.30;33.00;;;28.68;18.02;99559.22;10397117;28;96808;-86
2023/04/23 13:57:29;;;;;;;4.30;2.05;;;31.50;32.60;;;28.72;18.56;99562.94;10365151;28;96640;-86
2023/04/23 14:02:32;;;;;;;2.60;2.28;;;31.60;32.80;;;27.63;18.71;99558.78;10404836;28;96680;-84
2023/04/23 14:07:35;;;;;;;2.50;2.10;;;31.00;32.00;;;27.44;19.29;99561.50;10380096;28;96653;-86
2023/04/23 14:12:38;;;;;;;4.65;2.20;;;30.30;32.60;;;27.31;19.46;99556.78;10406602;28;97170;-84
2023/04/23 14:17:43;;;;;;;3.55;2.30;;;30.10;33.10;;;27.08;19.07;99553.00;10376551;28;97936;-85
2023/04/23 14:22:50;;;;;;;3.88;2.60;;;29.80;32.70;;;26.02;19.97;99547.53;10391188;28;97287;-84
2023/04/23 14:27:55;;;;;;;3.92;2.95;;;28.60;33.20;;;24.89;21.53;99552.00;10380792;28;98203;-84
2023/04/23 14:32:59;;;;;;;4.00;2.33;;;27.30;34.20;;;24.76;21.63;99549.88;10395440;28;97185;-85
2023/04/23 14:38:02;;;;;;;4.80;2.50;;;27.00;34.60;;;24.93;21.16;99539.47;10402802;28;96532;-84
2023/04/23 14:43:05;;;;;;;4.43;2.20;;;27.30;34.40;;;25.21;22.12;99546.19;10402516;28;96473;-85
2023/04/23 14:48:17;;;;;;;3.33;2.25;;;27.50;34.80;;;25.83;20.23;99522.94;10419251;28;96499;-86
2023/04/23 14:53:20;;;;;;;2.80;2.28;;;28.00;34.40;;;25.84;20.47;99524.56;10401884;28;96496;-85
2023/04/23 14:58:23;;;;;;;3.60;2.58;;;28.10;33.90;;;25.25;20.47;99528.22;10385536;28;97291;-85
2023/04/23 15:03:26;;;;;;;3.97;2.33;;;27.60;33.70;;;24.40;21.59;99532.84;10383563;28;96754;-85
2023/04/23 15:08:30;;;;;;;3.60;2.55;;;26.60;34.30;;;23.92;23.30;99532.34;10402304;28;96498;-85
2023/04/23 15:13:56;;;;;;;3.70;2.20;;;25.80;35.40;;;24.23;22.90;99525.81;10383825;28;96587;-85
2023/04/23 15:19:05;;;;;;;3.20;2.50;;;26.10;35.70;;;24.68;22.08;99526.81;10400643;28;96497;-85
2023/04/23 15:24:08;;;;;;;3.15;2.28;;;26.50;35.70;;;24.97;22.01;99521.53;10383785;28;97563;-86
2023/04/23 15:29:12;;;;;;;5.28;3.20;;;26.90;35.20;;;24.92;21.77;99526.19;10384024;28;97047;-86
2023/04/23 15:34:15;;;;;;;3.72;2.42;;;27.00;34.90;;;25.01;21.73;99522.59;10383911;28;96628;-86
2023/04/23 15:39:18;;;;;;;4.13;2.47;;;27.20;34.90;;;25.26;22.04;99510.81;10400619;28;97470;-85
2023/04/23 15:44:22;;;;;;;3.25;2.15;;;27.30;35.10;;;25.32;21.59;99496.09;10384492;28;96445;-85
2023/04/23 15:49:27;;;;;;;4.75;2.50;;;27.30;35.00;;;25.16;21.35;99501.88;10401447;28;96623;-86
2023/04/23 15:54:30;;;;;;;5.05;2.33;;;27.20;35.30;;;24.81;21.65;99501.75;10383604;28;96646;-85
2023/04/23 15:59:33;;;;;;;4.63;2.90;;;26.80;34.80;;;24.27;22.41;99504.34;10359750;28;97289;-86
2023/04/23 16:04:36;;;;;;;4.32;2.58;;;26.30;35.00;;;24.00;22.52;99507.38;10383196;28;96670;-85
2023/04/23 16:09:39;;;;;;;4.05;2.50;;;26.00;35.40;;;23.86;22.92;99498.16;10398738;28;97042;-86
2023/04/23 16:14:43;;;;;;;4.32;2.85;;;25.90;35.60;;;23.67;23.10;99495.97;10398150;28;96539;-86
2023/04/23 16:19:46;;;;;;;6.22;2.78;;;25.70;35.90;;;23.41;23.89;99494.31;10399302;28;96560;-86
2023/04/23 16:24:49;;;;;;;3.40;2.28;;;25.40;36.30;;;23.43;24.29;99498.38;10405303;28;97275;-83
2023/04/23 16:29:53;;;;;;;4.20;2.90;;;25.20;36.70;;;23.24;24.54;99487.22;10392309;28;98097;-85
2023/04/23 16:34:56;;;;;;;4.03;2.67;;;25.00;37.20;;;22.91;24.81;99487.69;10394682;28;96982;-85
2023/04/23 16:40:00;;;;;;;4.20;2.60;;;24.70;37.30;;;22.77;25.09;99486.53;10370591;28;97911;-84
2023/04/23 16:45:04;;;;;;;6.80;2.60;;;24.40;37.50;;;22.64;25.02;99480.50;10377994;27;97707;-86
2023/04/23 16:50:08;;;;;;;3.95;2.50;;;24.30;37.80;;;22.36;25.98;99483.63;10412563;28;96738;-87
2023/04/23 16:55:11;;;;;;;5.45;2.80;;;23.90;38.20;;;22.01;26.56;99479.59;10396824;28;96522;-87
2023/04/23 17:00:15;;;;;;;7.57;3.47;;;23.50;38.70;;;21.60;27.17;99479.28;10387635;27;98395;-87
2023/04/23 17:05:25;;;;;;;3.45;2.30;;;23.00;39.20;;;21.16;28.20;99485.84;10385787;28;97608;-86
2023/04/23 17:10:28;;;;;;;4.10;2.53;;;22.60;39.80;;;20.69;29.25;99479.13;10364371;28;97726;-87
2023/04/23 17:15:31;;;;;;;6.68;3.35;;;22.10;40.70;;;20.34;29.82;99494.84;10410318;28;97888;-86
2023/04/23 17:20:35;;;;;;;7.00;4.40;;;21.70;41.40;;;19.94;32.00;99485.06;10395277;27;97143;-86
2023/04/23 17:25:38;;;;;;;7.68;3.60;;;21.30;42.40;;;19.55;32.05;99490.31;10402229;28;96719;-86
2023/04/23 17:30:42;;;;;;;8.63;3.63;;;20.80;43.00;;;19.17;32.66;99488.31;10380653;28;96586;-86
2023/04/23 17:35:50;;;;;;;6.07;2.80;;;20.40;43.80;;;18.78;33.34;99480.03;10395569;27;96654;-85
2023/04/23 17:40:54;;;;;;;5.32;2.83;;;20.10;44.50;;;18.44;34.46;99485.22;10421643;28;96921;-86
2023/04/23 17:45:57;;;;;;;8.73;3.75;;;19.70;45.10;;;18.10;34.86;99491.44;10397162;28;96808;-86
2023/04/23 17:51:02;;;;;;;8.30;3.15;;;19.30;45.50;;;17.79;35.20;99501.47;10395778;28;98189;-86
2023/04/23 17:56:05;;;;;;;4.43;2.85;;;19.00;46.00;;;17.50;36.11;99496.94;10386865;28;96756;-85
2023/04/23 18:01:08;;;;;;;6.30;3.22;;;18.70;46.50;;;17.19;36.68;99501.53;10393524;28;98022;-85
2023/04/23 18:06:11;;;;;;;5.45;3.25;;;18.40;47.10;;;16.92;37.62;99511.81;10408988;28;96698;-86
2023/04/23 18:11:15;;;;;;;7.97;4.05;;;18.10;47.70;;;16.58;38.43;99521.25;10395225;28;96738;-80
2023/04/23 18:16:18;;;;;;;7.13;4.00;;;17.80;48.40;;;16.30;40.25;99527.91;10395732;28;97469;-83
2023/04/23 18:21:22;;;;;;;7.25;4.47;;;17.60;49.80;;;16.00;40.86;99524.28;10380551;28;96957;-84
2023/04/23 18:26:25;;;;;;;6.65;4.13;;;17.20;50.50;;;15.77;41.08;99535.59;10379254;28;98635;-84
2023/04/23 18:31:28;;;;;;;6.70;3.97;;;17.00;51.50;;;15.52;41.70;99538.22;10396141;28;98525;-85
2023/04/23 18:36:36;;;;;;;7.53;3.60;;;16.70;51.30;;;15.29;42.74;99552.16;10379327;27;97253;-84
2023/04/23 18:41:39;;;;;;;7.15;3.40;;;16.50;52.00;;;15.02;43.98;99553.31;10376103;28;96597;-88
2023/04/23 18:46:42;;;;;;;6.68;3.83;;;16.20;53.00;;;14.77;44.68;99558.56;10405819;27;96780;-84
2023/04/23 18:51:50;;;;;;;4.50;3.20;;;16.00;53.50;;;14.56;44.71;99552.44;10395988;28;96647;-85
2023/04/23 18:56:53;;;;;;;7.35;4.53;;;15.80;54.00;;;14.39;44.81;99559.22;10396225;27;98209;-82
2023/04/23 19:01:56;;;;;;;4.95;3.42;;;15.60;53.90;;;14.26;45.05;99564.56;10393346;28;96743;-83
2023/04/23 19:06:59;;;;;;;9.33;4.27;;;15.50;54.10;;;14.12;45.25;99561.09;10395612;27;97160;-84
2023/04/23 19:12:03;;;;;;;6.45;3.60;;;15.30;54.50;;;14.01;45.54;99557.19;10367620;28;96668;-83
2023/04/23 19:17:06;;;;;;;4.77;3.13;;;15.20;54.80;;;13.90;46.67;99557.81;10378427;28;96786;-83
2023/04/23 19:22:09;;;;;;;4.50;3.07;;;15.10;55.40;;;13.79;46.38;99559.22;10380767;27;98185;-83
2023/04/23 19:27:12;;;;;;;5.23;2.93;;;15.00;55.50;;;13.68;46.72;99561.72;10366765;27;96474;-83
2023/04/23 19:32:15;;;;;;;6.80;3.97;;;14.90;55.90;;;13.54;48.04;99567.00;10373931;27;96827;-82
2023/04/23 19:37:18;;;;;;;6.80;4.07;;;14.70;56.50;;;13.35;48.85;99568.59;10369287;28;97635;-83
2023/04/23 19:42:21;;;;;;;7.30;3.60;;;14.60;57.80;;;13.18;49.19;99569.94;10399529;28;96595;-83
2023/04/23 19:47:24;;;;;;;6.53;3.97;;;14.40;58.00;;;13.03;49.75;99559.44;10396071;27;96764;-83
2023/04/23 19:52:28;;;;;;;6.83;3.90;;;14.30;58.50;;;12.92;50.08;99561.84;10406145;27;98200;-83
2023/04/23 19:57:31;;;;;;;9.23;4.57;;;14.10;58.60;;;12.77;50.23;99553.97;10397315;28;96733;-83
2023/04/23 20:02:34;;;;;;;7.43;4.00;;;14.00;59.00;;;12.66;50.78;99557.22;10381125;27;96584;-83
2023/04/23 20:07:38;;;;;;;5.30;3.27;;;13.90;59.10;;;12.54;51.70;99554.28;10381841;28;98394;-83
2023/04/23 20:12:41;;;;;;;4.97;3.10;;;13.80;59.70;;;12.41;51.85;99560.31;10387136;28;96569;-82
2023/04/23 20:17:44;;;;;;;6.03;3.67;;;13.70;60.20;;;12.30;52.34;99558.22;10385577;27;96569;-81
2023/04/23 20:22:47;;;;;;;5.97;3.50;;;13.50;60.50;;;12.17;53.77;99553.59;10378069;28;97676;-82
2023/04/23 20:27:51;;;;;;;6.50;3.90;;;13.40;61.50;;;12.03;54.47;99554.53;10395524;27;97232;-81
2023/04/23 20:32:54;;;;;;;7.27;3.90;;;13.30;62.00;;;11.93;54.62;99549.53;10380856;28;97386;-81
2023/04/23 20:37:57;;;;;;;6.13;3.80;;;13.20;62.50;;;11.82;56.04;99544.75;10404866;27;96691;-86
2023/04/23 20:43:00;;;;;;;8.27;3.90;;;13.10;63.30;;;11.72;56.39;99542.38;10391555;28;97594;-86
2023/04/23 20:48:03;;;;;;;6.03;3.47;;;13.00;64.30;;;11.69;56.49;99539.25;10373791;28;96602;-87
2023/04/23 20:53:06;;;;;;;9.97;4.93;;;12.90;63.90;;;11.64;56.96;99541.69;10392057;28;96711;-86
2023/04/23 20:58:09;;;;;;;10.23;4.70;;;12.90;65.10;;;11.63;56.71;99545.34;10411904;28;96630;-86
2023/04/23 21:03:12;;;;;;;9.40;4.97;;;12.80;64.70;;;11.58;56.65;99537.94;10377196;28;96568;-86
2023/04/23 21:08:16;;;;;;;8.23;3.83;;;12.80;64.90;;;11.61;57.13;99539.41;10391199;27;97424;-87
2023/04/23 21:13:19;;;;;;;9.60;4.83;;;12.80;65.40;;;11.58;57.56;99532.63;10411369;28;97565;-87